Time;durP1;ratioP1;P1;durP2;ratioP2;P2;SDS_P1;SDS_P2;PMS_P1;PMS_P2;Temp;Humidity;BMP_temperature;BMP_pressure;BME280_temperature;BME280_humidity;BME280_pressure;Samples;Min_cycle;Max_cycle;Signal;HPM_P1;HPM_P2
2021/12/05 00:16:56;;;;;;;1.45;1.02;;;6.90;78.20;;;;;;5015480;28;20460;-76
2021/12/05 00:23:21;;;;;;;5.00;1.75;;;6.60;80.10;;;;;;5015481;28;20412;-76
2021/12/05 00:25:51;;;;;;;2.10;1.27;;;6.50;80.60;;;;;;5014388;28;20396;-76
2021/12/05 00:50:18;;;;;;;3.63;1.40;;;6.70;80.70;;;;;;5015068;28;20081;-76
2021/12/05 00:57:57;;;;;;;2.42;1.25;;;6.80;80.00;;;;;;5015282;28;20042;-76
2021/12/05 01:11:34;;;;;;;3.15;1.15;;;6.70;79.60;;;;;;5013968;28;20077;-76
2021/12/05 01:16:45;;;;;;;7.57;1.08;;;6.60;79.60;;;;;;5015003;28;20033;-76
2021/12/05 01:19:17;;;;;;;2.40;1.13;;;6.60;80.20;;;;;;5013362;28;20026;-76
2021/12/05 01:21:44;;;;;;;1.50;0.98;;;6.60;80.40;;;;;;5013272;28;20030;-76
2021/12/05 01:29:33;;;;;;;4.30;1.92;;;6.60;80.40;;;;;;5018636;28;20033;-76
2021/12/05 01:32:13;;;;;;;5.78;1.60;;;6.60;80.70;;;;;;5033020;28;20037;-76
2021/12/05 01:37:29;;;;;;;4.78;2.92;;;6.60;81.00;;;;;;5018533;28;20030;-76
2021/12/05 01:40:16;;;;;;;3.85;1.90;;;6.60;81.00;;;;;;5017382;28;20105;-76
2021/12/05 01:43:10;;;;;;;2.67;1.58;;;6.50;80.80;;;;;;5018577;28;20022;-76
2021/12/05 01:56:40;;;;;;;3.25;1.30;;;6.40;81.10;;;;;;5014191;28;20073;-74
2021/12/05 02:15:13;;;;;;;1.65;1.25;;;6.50;80.10;;;;;;5017016;28;20113;-76
2021/12/05 02:37:12;;;;;;;2.17;1.20;;;6.60;81.40;;;;;;5010787;28;20414;-76
2021/12/05 02:42:29;;;;;;;10.27;1.88;;;6.70;81.80;;;;;;5017478;28;20087;-76
2021/12/05 02:44:56;;;;;;;2.85;1.40;;;6.70;81.90;;;;;;5032130;28;20064;-76
2021/12/05 02:47:25;;;;;;;3.22;1.55;;;6.70;81.70;;;;;;5032227;28;20122;-76
2021/12/05 02:49:57;;;;;;;7.00;1.55;;;6.70;81.50;;;;;;5028026;28;20054;-76
2021/12/05 02:52:30;;;;;;;5.63;1.63;;;6.60;81.80;;;;;;5001097;28;20515;-76
2021/12/05 02:55:16;;;;;;;2.60;1.50;;;6.50;82.10;;;;;;5016882;28;20108;-76
2021/12/05 03:00:14;;;;;;;4.25;1.67;;;6.50;82.20;;;;;;5017277;28;20061;-76
2021/12/05 03:02:43;;;;;;;3.08;1.75;;;6.50;82.10;;;;;;5027982;28;20031;-76
2021/12/05 03:05:13;;;;;;;2.83;1.50;;;6.60;82.20;;;;;;4997120;28;20056;-76
2021/12/05 03:07:42;;;;;;;4.78;1.60;;;6.60;82.40;;;;;;4997372;28;20026;-76
2021/12/05 03:10:10;;;;;;;3.70;1.23;;;6.50;82.30;;;;;;4996734;28;20033;-76
2021/12/05 03:12:38;;;;;;;5.35;1.23;;;6.50;82.40;;;;;;5011575;28;20022;-76
2021/12/05 03:15:07;;;;;;;7.35;1.40;;;6.60;82.60;;;;;;5016552;28;20038;-76
2021/12/05 03:17:33;;;;;;;1.52;1.20;;;6.50;82.20;;;;;;5015713;28;20022;-76
2021/12/05 03:19:59;;;;;;;3.63;1.35;;;6.50;82.30;;;;;;5016554;28;20411;-76
2021/12/05 03:22:25;;;;;;;2.33;1.20;;;6.50;82.50;;;;;;5016330;28;20061;-77
2021/12/05 03:24:50;;;;;;;2.75;1.20;;;6.50;82.30;;;;;;5015781;28;20042;-76
2021/12/05 03:27:16;;;;;;;2.15;1.33;;;6.40;82.40;;;;;;5016174;28;20093;-76
2021/12/05 03:29:42;;;;;;;4.53;1.20;;;6.40;82.40;;;;;;5030853;28;20093;-76
2021/12/05 03:32:08;;;;;;;4.47;1.40;;;6.40;82.60;;;;;;5016296;28;20056;-76
2021/12/05 03:34:34;;;;;;;5.35;1.88;;;6.40;82.50;;;;;;5016161;28;20029;-76
2021/12/05 03:37:01;;;;;;;5.47;1.30;;;6.40;82.50;;;;;;5031167;28;20018;-76
2021/12/05 03:39:28;;;;;;;5.32;1.38;;;6.40;82.70;;;;;;5015418;28;20042;-76
2021/12/05 03:41:55;;;;;;;3.45;1.52;;;6.30;82.60;;;;;;5014880;28;20037;-76
2021/12/05 03:44:25;;;;;;;6.40;1.70;;;6.30;82.60;;;;;;5014891;28;20022;-76
2021/12/05 03:46:59;;;;;;;1.30;1.20;;;6.30;82.80;;;;;;5001615;28;20064;-75
2021/12/05 03:49:28;;;;;;;3.38;1.35;;;6.20;82.70;;;;;;5015344;28;20044;-76
2021/12/05 03:52:00;;;;;;;3.53;1.17;;;6.20;82.90;;;;;;5015804;28;20025;-76
2021/12/05 03:54:26;;;;;;;2.75;1.00;;;6.20;82.90;;;;;;5015876;28;20030;-76
2021/12/05 03:56:53;;;;;;;4.03;1.10;;;6.20;82.90;;;;;;5015834;28;20481;-76
2021/12/05 03:59:19;;;;;;;2.80;1.20;;;6.10;82.70;;;;;;5014990;28;20396;-76
2021/12/05 04:01:47;;;;;;;1.90;1.17;;;6.10;83.00;;;;;;5016011;28;20026;-76
2021/12/05 04:04:17;;;;;;;3.90;1.75;;;6.10;83.00;;;;;;5014002;28;20022;-75
2021/12/05 04:06:44;;;;;;;3.83;1.30;;;6.10;83.20;;;;;;5015503;28;20022;-76
2021/12/05 04:09:12;;;;;;;9.20;1.38;;;6.10;83.10;;;;;;5014094;28;20129;-76
2021/12/05 04:11:44;;;;;;;5.95;1.30;;;6.10;82.80;;;;;;5015609;28;20030;-76
2021/12/05 04:14:13;;;;;;;2.33;0.93;;;6.10;83.10;;;;;;5014654;28;20022;-76
2021/12/05 04:16:41;;;;;;;2.35;1.05;;;6.00;83.20;;;;;;5015507;28;20083;-76
2021/12/05 04:19:07;;;;;;;3.55;1.13;;;6.00;82.90;;;;;;5022402;28;20048;-76
2021/12/05 04:21:36;;;;;;;2.63;0.98;;;6.00;82.90;;;;;;5014950;28;20411;-76
2021/12/05 04:24:04;;;;;;;2.78;1.20;;;5.90;82.80;;;;;;5030735;28;20030;-76
2021/12/05 04:26:30;;;;;;;1.90;1.17;;;5.90;82.90;;;;;;5014340;28;20034;-76
2021/12/05 04:28:56;;;;;;;3.00;1.13;;;5.90;82.90;;;;;;5014003;28;20157;-76
2021/12/05 04:31:22;;;;;;;3.60;1.00;;;5.90;82.90;;;;;;5014160;28;20030;-76
2021/12/05 04:33:49;;;;;;;1.85;1.10;;;5.90;82.80;;;;;;5015209;28;20061;-76
2021/12/05 04:36:15;;;;;;;1.15;0.90;;;5.90;82.80;;;;;;5014330;28;20110;-76
2021/12/05 04:38:43;;;;;;;1.27;1.17;;;6.00;82.80;;;;;;5013703;28;20037;-76
2021/12/05 04:41:09;;;;;;;1.55;1.00;;;6.00;82.80;;;;;;5013196;28;20061;-76
2021/12/05 04:43:37;;;;;;;2.60;1.35;;;6.00;82.60;;;;;;5013926;28;20030;-76
2021/12/05 04:46:07;;;;;;;2.95;1.27;;;6.00;82.20;;;;;;5024699;28;20145;-76
2021/12/05 04:48:33;;;;;;;1.30;1.20;;;6.10;82.40;;;;;;5013871;28;20521;-77
2021/12/05 04:50:59;;;;;;;3.78;1.25;;;6.00;82.60;;;;;;5030027;28;20046;-76
2021/12/05 04:53:27;;;;;;;1.15;0.98;;;5.90;82.40;;;;;;5013857;28;20030;-76
2021/12/05 04:55:54;;;;;;;1.65;1.17;;;5.80;82.70;;;;;;5014077;28;20443;-76
2021/12/05 04:58:19;;;;;;;1.33;1.00;;;5.80;82.50;;;;;;5015159;28;20716;-76
2021/12/05 05:00:46;;;;;;;4.57;1.48;;;5.80;82.70;;;;;;5014538;28;20493;-76
2021/12/05 05:03:13;;;;;;;2.15;1.10;;;5.90;82.70;;;;;;5019079;28;20080;-76
2021/12/05 05:05:46;;;;;;;4.80;1.20;;;5.90;82.70;;;;;;5018400;28;20026;-76
2021/12/05 05:08:12;;;;;;;2.63;1.10;;;5.90;82.60;;;;;;5019072;28;20026;-76
2021/12/05 05:10:38;;;;;;;3.10;1.20;;;5.80;82.30;;;;;;5019151;28;20029;-76
2021/12/05 05:13:05;;;;;;;1.50;1.38;;;5.70;82.60;;;;;;5016899;28;20038;-76
2021/12/05 05:15:31;;;;;;;4.72;1.60;;;5.70;82.60;;;;;;5018665;28;20047;-76
2021/12/05 05:18:08;;;;;;;2.38;1.10;;;5.70;82.80;;;;;;5034221;28;20045;-76
2021/12/05 05:20:49;;;;;;;4.97;2.10;;;5.70;82.80;;;;;;5017098;28;20033;-76
2021/12/05 05:51:39;;;;;;;1.70;1.27;;;6.00;82.80;;;;;;5017872;28;20042;-76
2021/12/05 05:54:04;;;;;;;2.35;1.30;;;6.00;82.70;;;;;;5018233;28;20032;-76
2021/12/05 05:56:32;;;;;;;3.90;1.30;;;6.00;82.40;;;;;;5017748;28;20496;-76
2021/12/05 05:59:15;;;;;;;4.18;1.60;;;5.90;82.60;;;;;;5017264;28;20026;-77
2021/12/05 06:04:16;;;;;;;4.05;1.48;;;5.90;83.10;;;;;;5018297;28;20053;-77
2021/12/05 06:06:42;;;;;;;3.30;1.48;;;5.90;82.90;;;;;;5012786;28;20045;-78
2021/12/05 06:09:10;;;;;;;4.53;1.20;;;5.80;83.00;;;;;;4998367;28;20409;-78
2021/12/05 06:11:37;;;;;;;6.47;1.48;;;5.90;83.20;;;;;;4997023;28;20381;-78
2021/12/05 06:14:03;;;;;;;7.40;1.83;;;6.00;83.20;;;;;;5008257;28;20021;-78
2021/12/05 06:16:30;;;;;;;5.45;1.33;;;6.00;83.30;;;;;;5017733;28;20044;-77
2021/12/05 06:18:56;;;;;;;4.85;1.38;;;5.90;83.20;;;;;;5016676;28;20032;-77
2021/12/05 06:21:22;;;;;;;2.25;1.08;;;5.90;83.10;;;;;;5017580;28;20026;-78
2021/12/05 06:23:48;;;;;;;2.25;1.20;;;5.90;83.20;;;;;;5016126;28;20381;-78
2021/12/05 06:26:22;;;;;;;1.42;1.30;;;5.80;83.30;;;;;;5016368;28;20038;-78
2021/12/05 06:40:22;;;;;;;3.95;1.58;;;5.70;83.50;;;;;;4975720;28;20025;-78
2021/12/05 06:43:03;;;;;;;4.95;1.65;;;5.80;83.60;;;;;;4975614;28;20462;-78
2021/12/05 06:48:13;;;;;;;5.65;1.83;;;5.70;83.50;;;;;;5037108;28;20435;-78
2021/12/05 06:50:38;;;;;;;6.03;1.95;;;5.80;83.60;;;;;;5017220;28;20049;-78
2021/12/05 06:53:06;;;;;;;8.00;1.75;;;5.80;83.70;;;;;;5015964;28;20022;-78
2021/12/05 06:55:32;;;;;;;3.97;1.33;;;5.70;83.70;;;;;;5016028;28;20026;-77
2021/12/05 06:57:58;;;;;;;6.80;1.75;;;5.70;83.60;;;;;;5015295;28;20041;-77
2021/12/05 07:00:31;;;;;;;3.92;1.70;;;5.70;83.70;;;;;;5016964;28;20108;-78
2021/12/05 07:02:57;;;;;;;6.35;2.15;;;5.60;83.80;;;;;;5011029;28;20030;-78
2021/12/05 07:05:44;;;;;;;6.65;1.98;;;5.70;83.90;;;;;;4990924;28;20033;-78
2021/12/05 07:08:13;;;;;;;6.38;1.35;;;5.70;83.80;;;;;;5019722;28;20026;-78
2021/12/05 07:10:51;;;;;;;7.60;1.58;;;5.70;83.80;;;;;;5023159;28;20073;-78
2021/12/05 07:40:30;;;;;;;5.57;1.83;;;5.70;83.70;;;;;;4987705;28;20030;-77
2021/12/05 07:43:04;;;;;;;3.45;1.65;;;5.60;83.60;;;;;;5007288;28;20478;-77
2021/12/05 07:45:52;;;;;;;18.77;2.97;;;5.60;83.60;;;;;;5008859;28;20032;-76
2021/12/05 07:48:23;;;;;;;6.88;1.92;;;5.60;83.70;;;;;;5015835;28;20022;-75
2021/12/05 07:50:57;;;;;;;;;;;5.60;83.50;;;;;;5015537;28;20046;-75
2021/12/05 07:53:35;;;;;;;6.55;1.88;;;5.60;83.50;;;;;;5024632;28;19936;-75
2021/12/05 07:56:10;;;;;;;6.47;2.28;;;5.70;83.30;;;;;;5022573;28;20041;-75
2021/12/05 08:16:58;;;;;;;7.05;2.67;;;5.70;83.30;;;;;;5014423;28;20045;-75
2021/12/05 08:19:23;;;;;;;7.10;2.35;;;5.90;83.30;;;;;;5015450;28;20465;-75
2021/12/05 08:21:55;;;;;;;13.20;3.17;;;6.00;83.30;;;;;;5005048;23;20531;-74
2021/12/05 08:24:32;;;;;;;5.97;2.63;;;6.10;83.10;;;;;;4989403;28;20030;-74
2021/12/05 08:30:14;;;;;;;15.20;7.80;;;5.90;83.20;;;;;;5075331;28;20773;-76
2021/12/05 08:32:56;;;;;;;5.40;3.63;;;5.70;83.50;;;;;;5057833;28;20037;-76
2021/12/05 10:01:43;;;;;;;3.30;2.03;;;8.40;76.60;;;;;;5022345;28;20534;-76
2021/12/05 10:10:43;;;;;;;4.57;1.85;;;8.80;73.60;;;;;;4997158;28;20037;-76
2021/12/05 10:27:13;;;;;;;10.60;1.80;;;9.30;70.00;;;;;;5006165;28;20041;-76
2021/12/05 10:38:06;;;;;;;3.88;1.55;;;9.50;69.10;;;;;;5022566;28;20471;-77
2021/12/05 10:40:43;;;;;;;6.47;1.75;;;9.70;69.00;;;;;;5025014;28;20026;-76
2021/12/05 10:43:18;;;;;;;6.53;1.92;;;10.00;67.90;;;;;;5024538;28;20049;-75
2021/12/05 10:46:09;;;;;;;7.18;1.52;;;9.90;67.50;;;;;;5025399;28;20498;-76
2021/12/05 10:48:45;;;;;;;6.28;1.48;;;9.70;68.80;;;;;;5021817;28;20038;-76
2021/12/05 10:51:15;;;;;;;5.80;1.67;;;9.50;69.10;;;;;;5023280;28;20118;-76
2021/12/05 10:53:46;;;;;;;4.53;2.17;;;9.40;67.50;;;;;;5024598;28;20487;-76
2021/12/05 10:56:22;;;;;;;3.42;1.48;;;9.30;68.10;;;;;;5026779;28;20018;-76
2021/12/05 10:58:53;;;;;;;5.60;1.67;;;9.20;67.90;;;;;;5026794;28;20029;-77
2021/12/05 11:01:23;;;;;;;5.57;2.15;;;9.30;68.90;;;;;;5034640;28;20029;-74
2021/12/05 11:03:59;;;;;;;10.00;1.70;;;9.50;68.90;;;;;;5025578;28;20499;-79
2021/12/05 11:06:26;;;;;;;6.10;2.05;;;9.50;67.90;;;;;;5023121;28;20053;-79
2021/12/05 11:08:57;;;;;;;8.60;2.95;;;9.60;68.90;;;;;;5024605;28;20487;-80
2021/12/05 11:11:24;;;;;;;3.78;1.60;;;9.70;68.20;;;;;;5024850;28;20109;-79
2021/12/05 11:13:50;;;;;;;5.68;2.28;;;9.80;67.40;;;;;;5021463;28;20030;-79
2021/12/05 11:16:55;;;;;;;4.97;1.67;;;10.30;66.90;;;;;;5013009;28;20037;-78
2021/12/05 11:19:27;;;;;;;6.50;1.65;;;10.70;65.20;;;;;;4993854;28;20045;-79
2021/12/05 11:22:16;;;;;;;5.25;1.38;;;10.90;65.60;;;;;;5018758;28;20117;-79
2021/12/05 11:24:59;;;;;;;10.57;2.13;;;10.90;64.10;;;;;;5022398;28;20109;-77
2021/12/05 11:27:25;;;;;;;4.60;1.60;;;10.70;65.00;;;;;;5016563;28;20404;-77
2021/12/05 11:30:00;;;;;;;8.93;1.73;;;10.50;64.40;;;;;;5021892;28;20026;-78
2021/12/05 11:32:54;;;;;;;14.95;1.38;;;10.40;65.30;;;;;;5017339;28;20040;-77
2021/12/05 11:35:25;;;;;;;6.38;1.77;;;10.40;64.30;;;;;;5017271;28;20045;-77
2021/12/05 11:38:08;;;;;;;5.82;1.60;;;10.70;64.10;;;;;;5014969;28;20056;-76
2021/12/05 11:40:48;;;;;;;4.78;1.30;;;11.10;64.20;;;;;;5001938;28;20484;-75
2021/12/05 11:43:35;;;;;;;9.85;1.95;;;10.90;64.40;;;;;;5010951;28;20034;-76
2021/12/05 11:46:06;;;;;;;6.25;1.48;;;10.60;67.10;;;;;;5013190;28;20095;-75
2021/12/05 11:48:38;;;;;;;5.57;1.45;;;10.20;69.70;;;;;;5022994;28;20051;-76
2021/12/05 11:51:20;;;;;;;6.63;1.73;;;10.00;70.60;;;;;;5005456;28;20029;-78
2021/12/05 11:54:01;;;;;;;2.75;1.17;;;9.80;72.90;;;;;;5000544;28;20845;-78
2021/12/05 11:56:29;;;;;;;4.82;1.45;;;9.60;72.40;;;;;;5007135;28;20029;-77
2021/12/05 11:59:40;;;;;;;7.55;1.55;;;9.30;73.30;;;;;;5006528;28;20034;-79
2021/12/05 12:02:13;;;;;;;11.02;3.00;;;9.20;74.50;;;;;;5013064;28;20046;-78
2021/12/05 12:04:59;;;;;;;16.42;6.75;;;9.20;74.70;;;;;;5008590;28;20026;-76
2021/12/05 12:07:48;;;;;;;17.63;5.70;;;9.50;74.30;;;;;;5008495;28;20506;-79
2021/12/05 12:10:15;;;;;;;7.97;2.13;;;9.70;73.90;;;;;;5008505;28;20026;-79
2021/12/05 12:12:45;;;;;;;4.45;1.50;;;9.80;72.30;;;;;;5008729;28;20041;-78
2021/12/05 12:15:14;;;;;;;2.92;1.02;;;9.80;71.50;;;;;;5007037;28;20038;-79
2021/12/05 12:17:39;;;;;;;1.45;0.85;;;9.80;70.60;;;;;;5006943;28;20094;-77
2021/12/05 12:20:11;;;;;;;2.78;0.82;;;9.90;69.80;;;;;;5004878;28;20914;-77
2021/12/05 12:22:37;;;;;;;4.45;1.10;;;9.70;70.80;;;;;;4998756;28;20044;-84
2021/12/05 12:25:11;;;;;;;3.22;1.08;;;9.60;70.50;;;;;;5019876;28;20042;-83
2021/12/05 12:27:40;;;;;;;7.63;2.13;;;9.50;70.20;;;;;;5007894;28;20042;-82
2021/12/05 12:30:08;;;;;;;5.38;1.90;;;9.60;70.70;;;;;;5008052;28;20068;-79
2021/12/05 12:32:40;;;;;;;3.72;0.88;;;9.50;72.40;;;;;;5003615;28;20109;-81
2021/12/05 12:35:16;;;;;;;1.80;1.20;;;8.90;77.00;;;;;;5000660;28;20026;-79
2021/12/05 12:38:02;;;;;;;3.88;1.38;;;8.60;79.80;;;;;;5003764;28;20060;-79
2021/12/05 12:40:46;;;;;;;4.15;0.82;;;8.40;78.80;;;;;;5003641;28;20030;-81
2021/12/05 12:43:39;;;;;;;2.83;0.93;;;8.50;78.30;;;;;;5005942;28;20054;-80
2021/12/05 12:46:30;;;;;;;4.75;1.27;;;8.50;79.30;;;;;;5008895;28;20026;-79
2021/12/05 12:49:20;;;;;;;3.58;1.10;;;8.40;79.90;;;;;;5001752;28;20152;-79
2021/12/05 12:51:59;;;;;;;1.60;0.85;;;8.50;80.00;;;;;;5012500;28;20076;-81
2021/12/05 12:54:56;;;;;;;3.72;1.20;;;8.30;80.10;;;;;;4998618;28;20029;-80
2021/12/05 12:57:32;;;;;;;2.20;1.15;;;8.40;80.20;;;;;;5004580;28;20626;-82
2021/12/05 13:00:05;;;;;;;2.33;1.23;;;8.30;80.00;;;;;;5014614;28;20389;-81
2021/12/05 13:02:56;;;;;;;4.28;1.48;;;8.40;80.50;;;;;;5011225;28;20121;-80
2021/12/05 13:11:20;;;;;;;3.50;0.98;;;8.30;79.30;;;;;;4999706;28;20061;-78
2021/12/05 13:14:01;;;;;;;3.55;1.25;;;8.30;78.30;;;;;;5000749;28;20023;-79
2021/12/05 13:16:31;;;;;;;;;;;8.20;78.90;;;;;;5004296;28;20109;-78
2021/12/05 13:19:19;;;;;;;6.13;1.60;;;8.20;78.10;;;;;;5006742;28;19909;-78
2021/12/05 13:21:50;;;;;;;3.28;1.30;;;8.30;78.60;;;;;;5005776;28;20033;-78
2021/12/05 13:24:42;;;;;;;2.05;1.08;;;8.30;78.70;;;;;;5007439;28;20034;-78
2021/12/05 13:27:23;;;;;;;1.38;1.08;;;8.40;78.70;;;;;;5007386;28;20120;-78
2021/12/05 13:29:52;;;;;;;3.95;1.10;;;8.30;78.40;;;;;;5007764;28;20030;-78
2021/12/05 13:32:25;;;;;;;3.78;1.23;;;8.30;78.30;;;;;;5016155;28;20048;-78
2021/12/05 13:34:54;;;;;;;3.47;1.30;;;8.20;78.10;;;;;;5012656;28;20030;-79
2021/12/05 13:37:24;;;;;;;2.95;0.93;;;8.20;78.30;;;;;;5012545;28;20479;-78
2021/12/05 13:40:14;;;;;;;3.50;1.27;;;8.30;78.10;;;;;;5012149;28;20044;-78
2021/12/05 13:42:46;;;;;;;5.93;1.33;;;8.30;78.30;;;;;;5006063;28;20034;-78
2021/12/05 13:45:21;;;;;;;4.45;1.20;;;8.30;78.00;;;;;;5021130;28;20036;-79
2021/12/05 13:48:05;;;;;;;3.08;1.20;;;8.30;78.00;;;;;;5024522;28;20026;-78
2021/12/05 13:50:42;;;;;;;5.20;1.50;;;8.40;78.40;;;;;;5000257;28;20022;-77
2021/12/05 13:53:07;;;;;;;6.75;2.25;;;8.40;78.30;;;;;;5014307;28;20550;-77
2021/12/05 13:55:44;;;;;;;2.53;1.23;;;8.30;78.50;;;;;;5032158;28;20108;-78
2021/12/05 13:58:22;;;;;;;4.70;1.27;;;8.20;78.70;;;;;;5024137;28;20108;-77
2021/12/05 14:00:54;;;;;;;4.80;1.27;;;8.20;79.00;;;;;;5020673;28;20050;-78
2021/12/05 14:03:38;;;;;;;4.57;1.25;;;8.30;78.40;;;;;;5024455;28;20113;-78
2021/12/05 14:06:25;;;;;;;4.28;1.80;;;8.50;78.60;;;;;;5012311;28;20018;-77
2021/12/05 14:08:52;;;;;;;6.70;1.73;;;8.80;77.70;;;;;;5011246;28;20570;-77
2021/12/05 14:11:19;;;;;;;2.67;1.17;;;8.90;77.50;;;;;;5016080;28;20499;-78
2021/12/05 14:13:45;;;;;;;7.93;1.20;;;9.10;77.00;;;;;;5007207;28;20080;-78
2021/12/05 14:16:11;;;;;;;4.85;1.27;;;9.20;76.20;;;;;;5000687;28;20049;-78
2021/12/05 14:18:37;;;;;;;3.85;0.90;;;9.20;76.00;;;;;;5003314;28;20088;-78
2021/12/05 14:21:18;;;;;;;6.03;1.90;;;9.20;75.90;;;;;;5008011;28;20042;-78
2021/12/05 14:23:52;;;;;;;2.80;1.13;;;9.30;76.40;;;;;;5001638;28;20038;-78
2021/12/05 14:26:22;;;;;;;6.20;1.33;;;9.30;76.70;;;;;;5005290;28;20143;-78
2021/12/05 14:29:13;;;;;;;3.38;1.02;;;9.10;77.20;;;;;;5013656;28;20053;-77
2021/12/05 14:31:43;;;;;;;;;;;9.00;77.90;;;;;;5009536;28;20029;-78
2021/12/05 14:34:10;;;;;;;4.75;1.30;;;8.80;77.80;;;;;;5007932;28;19905;-78
2021/12/05 14:36:44;;;;;;;1.90;1.02;;;8.90;78.00;;;;;;5010920;28;20044;-79
2021/12/05 14:39:21;;;;;;;3.55;1.08;;;8.90;78.60;;;;;;5013580;28;20484;-80
2021/12/05 14:41:51;;;;;;;6.03;1.77;;;8.70;78.20;;;;;;5010281;28;20030;-77
2021/12/05 14:44:18;;;;;;;3.55;1.48;;;8.60;78.20;;;;;;5010282;28;20049;-78
2021/12/05 14:46:56;;;;;;;4.00;1.20;;;8.70;77.90;;;;;;5008546;28;20088;-78
2021/12/05 14:49:25;;;;;;;2.22;1.20;;;8.60;77.10;;;;;;5008858;28;20037;-78
2021/12/05 14:51:52;;;;;;;5.07;1.30;;;8.70;77.80;;;;;;5012445;28;20108;-79
2021/12/05 14:54:31;;;;;;;1.88;1.05;;;8.70;77.90;;;;;;5015781;28;20026;-82
2021/12/05 14:56:57;;;;;;;8.48;2.80;;;8.50;78.00;;;;;;4997842;28;20033;-84
2021/12/05 14:59:24;;;;;;;7.82;3.08;;;8.60;78.30;;;;;;5001342;28;20030;-83
2021/12/05 15:01:54;;;;;;;12.25;4.50;;;8.50;78.40;;;;;;4996187;28;20026;-81
2021/12/05 15:04:27;;;;;;;7.40;1.83;;;8.50;78.50;;;;;;5013022;28;20041;-82
2021/12/05 15:06:53;;;;;;;5.65;1.70;;;8.60;78.00;;;;;;5012077;28;20038;-77
2021/12/05 15:09:30;;;;;;;5.60;2.25;;;8.70;78.20;;;;;;5014330;28;20030;-81
2021/12/05 15:12:03;;;;;;;5.45;1.83;;;8.70;78.20;;;;;;5007571;28;20200;-80
2021/12/05 15:14:29;;;;;;;6.88;1.40;;;8.70;77.30;;;;;;5015137;28;20033;-80
2021/12/05 15:17:17;;;;;;;7.82;1.50;;;8.90;77.30;;;;;;5013917;28;20017;-80
2021/12/05 15:19:46;;;;;;;8.00;1.73;;;8.80;77.50;;;;;;5012970;28;20034;-80
2021/12/05 15:22:13;;;;;;;3.97;1.42;;;8.80;77.30;;;;;;5015694;28;20037;-81
2021/12/05 15:24:48;;;;;;;6.63;1.73;;;8.80;76.70;;;;;;5009353;28;20056;-82
2021/12/05 15:27:16;;;;;;;4.07;1.77;;;8.80;76.60;;;;;;5006385;28;20053;-78
2021/12/05 15:29:47;;;;;;;6.65;1.48;;;8.70;77.00;;;;;;5011409;28;20029;-79
2021/12/05 15:32:23;;;;;;;6.57;1.85;;;8.70;76.90;;;;;;5014259;28;20541;-79
2021/12/05 15:34:55;;;;;;;4.18;1.40;;;8.70;76.50;;;;;;5009947;28;20030;-79
2021/12/05 15:37:21;;;;;;;3.13;1.40;;;8.70;76.70;;;;;;5004432;28;20079;-79
2021/12/05 15:39:50;;;;;;;4.28;1.65;;;8.70;76.60;;;;;;5014312;28;20143;-79
2021/12/05 15:42:41;;;;;;;6.95;1.80;;;8.60;76.50;;;;;;5014013;28;20137;-79
2021/12/05 15:45:11;;;;;;;5.05;1.73;;;8.70;76.20;;;;;;5021567;28;20057;-81
2021/12/05 15:47:39;;;;;;;1.95;1.40;;;8.70;76.50;;;;;;5006531;28;20025;-82
2021/12/05 15:50:14;;;;;;;3.53;1.80;;;8.70;76.20;;;;;;5012620;28;20037;-79
2021/12/05 15:53:00;;;;;;;8.68;2.58;;;8.60;76.70;;;;;;5013772;28;20025;-83
2021/12/05 15:55:40;;;;;;;10.25;1.77;;;8.70;76.20;;;;;;5016222;28;20071;-79
2021/12/05 15:58:11;;;;;;;2.70;1.38;;;8.70;76.40;;;;;;5006842;28;20030;-80
2021/12/05 16:01:00;;;;;;;3.88;1.80;;;8.70;75.50;;;;;;5012468;28;20037;-79
2021/12/05 16:03:45;;;;;;;5.97;1.70;;;8.70;75.00;;;;;;5012771;28;20021;-79
2021/12/05 16:13:40;;;;;;;2.22;1.23;;;8.10;77.50;;;;;;5063819;28;20434;-78
2021/12/05 16:16:10;;;;;;;1.70;1.23;;;7.90;78.60;;;;;;5043164;28;20014;-75
2021/12/05 16:18:45;;;;;;;5.50;1.38;;;7.90;81.30;;;;;;5050517;28;20475;-86
2021/12/05 16:21:27;;;;;;;3.42;1.45;;;7.90;82.60;;;;;;5051110;28;20112;-87
2021/12/05 16:23:55;;;;;;;5.80;1.52;;;8.10;80.60;;;;;;5048181;28;20056;-88
2021/12/05 16:26:26;;;;;;;3.83;1.73;;;8.00;79.40;;;;;;5051942;28;20331;-86
2021/12/05 16:29:05;;;;;;;4.53;1.45;;;8.00;79.20;;;;;;5045467;28;20093;-79
2021/12/05 16:31:36;;;;;;;4.30;1.42;;;8.00;78.40;;;;;;5049047;28;20119;-81
2021/12/05 16:34:01;;;;;;;;;;;8.00;78.30;;;;;;5048011;28;20051;-81
2021/12/05 16:36:32;;;;;;;4.97;1.50;;;8.10;77.70;;;;;;5044375;28;19905;-81
2021/12/05 16:39:09;;;;;;;4.35;1.58;;;8.20;78.20;;;;;;5045159;28;20025;-79
2021/12/05 16:41:41;;;;;;;1.63;1.35;;;8.20;78.60;;;;;;5049778;28;20474;-80
2021/12/05 16:44:12;;;;;;;3.08;1.50;;;8.20;78.00;;;;;;5049537;28;20028;-82
2021/12/05 16:46:43;;;;;;;8.63;3.67;;;8.20;78.20;;;;;;5046550;28;20113;-80
2021/12/05 16:49:16;;;;;;;14.00;5.80;;;8.10;77.80;;;;;;5050120;28;20059;-86
2021/12/05 16:51:54;;;;;;;2.75;2.50;;;8.10;77.70;;;;;;5050589;28;20108;-90
2021/12/05 16:54:32;;;;;;;7.82;3.25;;;8.10;77.70;;;;;;5046241;28;20055;-91
2021/12/05 16:57:01;;;;;;;3.65;1.80;;;8.20;77.80;;;;;;5050455;28;20081;-79
2021/12/05 16:59:29;;;;;;;7.00;2.03;;;8.20;77.90;;;;;;5047608;28;20460;-89
2021/12/05 17:02:15;;;;;;;7.38;2.58;;;8.20;78.00;;;;;;5041192;28;20033;-90
2021/12/05 17:04:56;;;;;;;4.72;1.40;;;8.20;77.60;;;;;;5049880;28;20112;-77
2021/12/05 17:08:01;;;;;;;12.00;3.38;;;8.20;77.40;;;;;;5045434;28;20030;-87
2021/12/05 17:10:26;;;;;;;6.38;1.55;;;8.30;77.40;;;;;;5073117;28;20041;-82
2021/12/05 17:12:55;;;;;;;6.90;2.40;;;8.20;77.50;;;;;;5048519;28;20122;-84
2021/12/05 17:15:27;;;;;;;9.48;2.67;;;8.30;77.40;;;;;;5048433;28;20013;-83
2021/12/05 17:18:04;;;;;;;3.20;1.70;;;8.20;77.40;;;;;;5049427;28;20059;-92
2021/12/05 17:20:42;;;;;;;13.55;5.03;;;8.20;77.90;;;;;;5050681;28;20021;-86
2021/12/05 17:23:17;;;;;;;7.93;3.60;;;8.20;77.90;;;;;;5049194;28;20036;-81
2021/12/05 17:25:48;;;;;;;9.07;2.42;;;8.10;77.80;;;;;;5033646;28;20084;-86
2021/12/05 17:28:37;;;;;;;3.85;2.05;;;8.10;77.90;;;;;;5036651;28;20033;-80
2021/12/05 17:31:09;;;;;;;4.03;2.08;;;8.10;77.90;;;;;;5033319;28;20655;-83
2021/12/05 17:33:50;;;;;;;8.60;2.40;;;8.10;78.50;;;;;;5031394;28;20030;-79
2021/12/05 17:36:23;;;;;;;6.00;2.50;;;8.20;78.60;;;;;;5035595;28;20406;-87
2021/12/05 17:38:51;;;;;;;4.85;2.25;;;8.20;78.60;;;;;;5030669;28;20026;-80
2021/12/05 17:41:18;;;;;;;5.40;3.72;;;8.10;78.70;;;;;;5031230;28;20025;-83
2021/12/05 17:43:44;;;;;;;5.18;2.90;;;8.10;78.90;;;;;;5033004;28;20044;-81
2021/12/05 17:46:10;;;;;;;7.82;3.70;;;8.20;78.90;;;;;;5045360;28;20436;-86
2021/12/05 17:48:37;;;;;;;8.73;4.00;;;8.10;78.60;;;;;;5034552;28;20029;-82
2021/12/05 17:51:05;;;;;;;7.70;3.08;;;8.10;79.10;;;;;;5027782;28;20025;-81
2021/12/05 17:53:35;;;;;;;10.98;2.97;;;8.20;79.10;;;;;;5030394;28;20064;-80
2021/12/05 17:56:08;;;;;;;6.00;3.67;;;8.20;79.20;;;;;;5032110;28;20336;-81
2021/12/05 17:58:51;;;;;;;6.20;2.05;;;8.20;79.20;;;;;;5033023;28;20029;-82
2021/12/05 18:04:01;;;;;;;4.60;2.40;;;8.20;79.30;;;;;;5032300;28;20071;-81
2021/12/05 18:06:27;;;;;;;3.97;2.13;;;8.20;79.80;;;;;;5032250;28;20026;-81
2021/12/05 18:08:53;;;;;;;3.72;1.67;;;8.20;80.10;;;;;;5058266;28;20648;-84
2021/12/05 18:11:22;;;;;;;4.85;1.38;;;8.10;80.10;;;;;;5032798;28;20072;-85
2021/12/05 18:13:53;;;;;;;7.03;1.98;;;8.00;80.40;;;;;;5026608;28;20025;-86
2021/12/05 18:16:23;;;;;;;5.55;1.75;;;8.10;79.90;;;;;;5032980;28;20013;-79
2021/12/05 18:18:59;;;;;;;3.17;1.50;;;8.20;80.10;;;;;;5029312;28;20025;-80
2021/12/05 18:21:26;;;;;;;5.57;2.60;;;8.20;79.70;;;;;;5033720;28;20458;-76
2021/12/05 18:24:12;;;;;;;5.78;1.92;;;8.20;78.90;;;;;;5033643;28;20487;-76
2021/12/05 18:26:39;;;;;;;2.55;1.42;;;8.20;77.90;;;;;;5028730;28;20033;-78
2021/12/05 18:29:08;;;;;;;7.00;1.73;;;8.20;77.50;;;;;;5034005;28;20071;-76
2021/12/05 18:31:35;;;;;;;4.15;1.40;;;8.20;77.70;;;;;;5032291;28;20087;-76
2021/12/05 18:34:06;;;;;;;6.03;1.42;;;8.20;77.80;;;;;;5028478;28;20022;-76
2021/12/05 18:36:37;;;;;;;1.90;1.13;;;8.20;77.50;;;;;;5030925;28;20017;-76
2021/12/05 18:39:05;;;;;;;12.02;6.97;;;8.30;77.70;;;;;;5025509;28;20049;-76
2021/12/05 18:41:33;;;;;;;7.53;2.90;;;8.30;77.80;;;;;;5023794;28;20026;-77
2021/12/05 18:44:01;;;;;;;14.05;4.88;;;8.30;77.50;;;;;;5029105;28;20079;-78
2021/12/05 18:46:51;;;;;;;5.18;2.35;;;8.30;77.90;;;;;;5036716;28;20049;-77
2021/12/05 18:49:17;;;;;;;2.63;1.63;;;8.30;77.90;;;;;;5030487;28;20044;-77
2021/12/05 18:51:43;;;;;;;8.90;2.50;;;8.50;77.80;;;;;;5027222;28;20841;-79
2021/12/05 18:54:09;;;;;;;2.63;1.85;;;8.40;78.10;;;;;;5031034;28;20032;-79
2021/12/05 18:56:35;;;;;;;5.78;1.92;;;8.40;78.00;;;;;;5034427;28;20060;-77
2021/12/05 18:59:02;;;;;;;6.32;3.15;;;8.40;78.20;;;;;;5026430;28;20388;-77
2021/12/05 19:07:10;;;;;;;10.60;2.80;;;8.40;78.50;;;;;;5029189;28;20054;-78
2021/12/05 19:11:40;;;;;;;4.47;1.88;;;8.50;78.70;;;;;;5028911;28;20537;-77
2021/12/05 19:12:27;;;;;;;6.13;2.65;;;8.50;78.80;;;;;;5028878;28;20081;-77
2021/12/05 19:15:15;;;;;;;7.25;3.38;;;8.50;78.90;;;;;;5027236;28;20030;-78
2021/12/05 19:17:41;;;;;;;7.35;2.60;;;8.40;79.10;;;;;;5030982;28;20060;-77